createdAt,value
2022-07-30T00:01:17.665Z,16.30
2022-07-30T00:06:20.937Z,16.30
2022-07-30T00:11:27.876Z,16.30
2022-07-30T00:16:31.748Z,16.20
2022-07-30T00:21:38.593Z,16.10
2022-07-30T00:26:44.414Z,16.10
2022-07-30T00:31:47.923Z,16.10
2022-07-30T00:36:53.527Z,15.90
2022-07-30T00:41:59.739Z,16.00
2022-07-30T00:47:03.615Z,15.90
2022-07-30T00:52:15.334Z,15.90
2022-07-30T00:57:20.828Z,15.70
2022-07-30T01:02:39.853Z,15.70
2022-07-30T01:07:45.828Z,15.60
2022-07-30T01:12:52.704Z,15.50
2022-07-30T01:18:07.162Z,15.40
2022-07-30T01:23:14.442Z,15.40
2022-07-30T01:28:21.371Z,15.40
2022-07-30T01:33:26.200Z,15.50
2022-07-30T01:38:35.186Z,15.30
2022-07-30T01:43:40.728Z,15.20
2022-07-30T01:48:44.281Z,15.30
2022-07-30T01:53:47.957Z,15.30
2022-07-30T01:58:55.759Z,15.20
2022-07-30T02:04:05.252Z,15.30
2022-07-30T02:09:11.628Z,15.10
2022-07-30T02:14:20.887Z,14.90
2022-07-30T02:19:32.598Z,14.80
2022-07-30T02:24:36.615Z,14.80
2022-07-30T02:29:41.571Z,14.80
2022-07-30T02:34:51.335Z,14.80
2022-07-30T02:39:55.247Z,14.70
2022-07-30T02:45:01.455Z,14.60
2022-07-30T02:50:05.772Z,14.60
2022-07-30T02:55:10.173Z,14.60
2022-07-30T03:00:16.180Z,14.60
2022-07-30T03:05:23.201Z,14.50
2022-07-30T03:10:32.004Z,14.50
2022-07-30T03:15:39.185Z,14.40
2022-07-30T03:20:46.899Z,14.50
2022-07-30T03:25:57.565Z,14.20
2022-07-30T03:31:02.291Z,14.20
2022-07-30T03:36:07.424Z,14.20
2022-07-30T03:41:11.822Z,14.20
2022-07-30T03:46:19.505Z,14.30
2022-07-30T03:51:26.201Z,14.30
2022-07-30T03:56:39.014Z,14.30
2022-07-30T04:02:03.955Z,14.10
2022-07-30T04:07:41.446Z,14.10
2022-07-30T04:12:48.632Z,14.30
2022-07-30T04:18:01.074Z,14.30
2022-07-30T04:23:04.729Z,14.20
2022-07-30T04:28:10.037Z,14.00
2022-07-30T04:33:16.854Z,13.90
2022-07-30T04:38:53.326Z,13.90
2022-07-30T04:43:57.480Z,14.00
2022-07-30T04:49:04.013Z,14.10
2022-07-30T04:54:15.725Z,14.20
2022-07-30T04:59:19.940Z,14.30
2022-07-30T05:04:24.742Z,14.40
2022-07-30T05:09:29.662Z,14.50
2022-07-30T05:14:33.606Z,14.70
2022-07-30T05:19:38.634Z,14.80
2022-07-30T05:24:42.237Z,14.70
2022-07-30T05:29:45.735Z,14.90
2022-07-30T05:34:58.640Z,15.40
2022-07-30T05:45:57.955Z,15.80
2022-07-30T05:51:02.836Z,16.00
2022-07-30T05:56:06.956Z,16.00
2022-07-30T06:01:36.581Z,16.10
2022-07-30T06:06:50.505Z,16.70
2022-07-30T06:11:54.139Z,16.60
2022-07-30T06:17:01.558Z,16.90
2022-07-30T06:22:25.547Z,17.00
2022-07-30T06:27:36.639Z,17.40
2022-07-30T06:32:45.722Z,17.70
2022-07-30T06:38:04.999Z,18.10
2022-07-30T06:43:15.046Z,18.90
2022-07-30T06:48:52.193Z,19.40
2022-07-30T06:53:59.503Z,19.90
2022-07-30T06:59:21.536Z,20.60
2022-07-30T07:04:47.853Z,20.80
2022-07-30T07:09:53.584Z,21.30
2022-07-30T07:15:36.158Z,21.50
2022-07-30T07:20:43.508Z,22.20
2022-07-30T07:25:48.415Z,22.70
2022-07-30T07:30:51.956Z,22.90
2022-07-30T07:35:55.602Z,23.50
2022-07-30T07:41:05.974Z,23.90
2022-07-30T07:46:12.569Z,24.20
2022-07-30T07:51:15.836Z,25.00
2022-07-30T07:56:42.820Z,24.80
2022-07-30T08:01:49.979Z,25.00
2022-07-30T08:07:12.130Z,25.70
2022-07-30T08:12:52.639Z,25.40
2022-07-30T08:18:23.281Z,26.00
2022-07-30T08:23:47.952Z,26.00
2022-07-30T08:28:54.610Z,27.00
2022-07-30T08:33:58.573Z,28.30
2022-07-30T08:39:04.823Z,27.00
2022-07-30T08:44:12.702Z,26.50
2022-07-30T08:49:17.223Z,26.70
2022-07-30T08:54:21.065Z,27.10
2022-07-30T08:59:26.363Z,27.20
2022-07-30T09:04:49.941Z,27.10
2022-07-30T09:09:54.838Z,27.10
2022-07-30T09:15:05.392Z,28.70
2022-07-30T09:20:11.748Z,28.10
2022-07-30T09:25:16.369Z,27.80
2022-07-30T09:30:48.675Z,28.00
2022-07-30T09:36:11.862Z,28.40
2022-07-30T09:41:43.953Z,27.90
2022-07-30T09:46:51.981Z,28.30
2022-07-30T09:52:03.726Z,29.10
2022-07-30T09:57:23.114Z,29.90
2022-07-30T10:02:34.379Z,29.80
2022-07-30T10:08:19.175Z,29.80
2022-07-30T10:13:34.846Z,29.40
2022-07-30T10:18:46.506Z,29.70
2022-07-30T10:24:13.838Z,29.80
2022-07-30T10:29:42.688Z,30.30
2022-07-30T10:34:48.102Z,30.10
2022-07-30T10:39:53.987Z,30.60
2022-07-30T10:45:10.132Z,30.30
2022-07-30T10:50:29.096Z,30.20
2022-07-30T10:55:44.024Z,30.70
2022-07-30T11:01:05.510Z,30.50
2022-07-30T11:12:11.162Z,31.20
2022-07-30T11:17:19.954Z,31.40
2022-07-30T11:22:51.315Z,31.90
2022-07-30T11:27:55.107Z,30.70
2022-07-30T11:33:19.771Z,30.50
2022-07-30T11:38:27.267Z,30.50
2022-07-30T11:43:35.130Z,31.00
2022-07-30T11:48:41.252Z,32.10
2022-07-30T11:53:46.360Z,31.90
2022-07-30T11:58:50.171Z,31.90
2022-07-30T12:03:53.789Z,30.40
2022-07-30T12:08:59.253Z,29.30
2022-07-30T12:14:03.643Z,28.70
2022-07-30T12:19:10.164Z,28.10
2022-07-30T12:24:14.854Z,28.50
2022-07-30T12:29:18.367Z,29.60
2022-07-30T12:34:23.224Z,32.10
2022-07-30T12:39:29.812Z,32.20
2022-07-30T12:44:38.837Z,31.10
2022-07-30T12:49:48.925Z,29.60
2022-07-30T12:55:06.160Z,32.60
2022-07-30T13:00:10.189Z,32.50
2022-07-30T13:05:13.481Z,33.30
2022-07-30T13:10:21.334Z,33.60
2022-07-30T13:15:25.231Z,33.30
2022-07-30T13:20:28.864Z,32.80
2022-07-30T13:25:40.440Z,33.50
2022-07-30T13:30:45.866Z,32.20
2022-07-30T13:35:50.130Z,33.50
2022-07-30T13:41:02.230Z,33.50
2022-07-30T13:46:06.463Z,33.60
2022-07-30T13:51:10.179Z,33.50
2022-07-30T13:56:20.135Z,34.10
2022-07-30T14:01:24.511Z,33.90
2022-07-30T14:06:30.226Z,32.20
2022-07-30T14:11:35.015Z,33.80
2022-07-30T14:16:46.020Z,34.20
2022-07-30T14:21:52.214Z,32.40
2022-07-30T14:26:58.297Z,33.80
2022-07-30T14:32:01.914Z,33.50
2022-07-30T14:37:05.901Z,33.40
2022-07-30T14:42:14.389Z,33.30
2022-07-30T14:47:18.028Z,33.10
2022-07-30T14:52:21.680Z,34.00
2022-07-30T14:57:26.509Z,33.50
2022-07-30T15:02:41.135Z,33.00
2022-07-30T15:07:44.456Z,33.60
2022-07-30T15:12:49.452Z,31.90
2022-07-30T15:17:53.841Z,30.50
2022-07-30T15:22:57.630Z,29.70
2022-07-30T15:28:02.733Z,29.70
2022-07-30T15:33:10.852Z,29.40
2022-07-30T15:38:17.830Z,29.70
2022-07-30T15:43:22.593Z,29.60
2022-07-30T15:48:26.882Z,29.60
2022-07-30T15:53:31.476Z,29.80
2022-07-30T15:58:38.266Z,29.80
2022-07-30T16:03:54.766Z,30.10
2022-07-30T16:08:59.718Z,30.00
2022-07-30T16:14:04.538Z,29.90
2022-07-30T16:19:08.979Z,30.50
2022-07-30T16:24:12.538Z,30.60
2022-07-30T16:29:20.863Z,30.70
2022-07-30T16:34:26.449Z,31.70
2022-07-30T16:39:30.141Z,33.20
2022-07-30T16:44:35.838Z,31.90
2022-07-30T16:49:39.547Z,30.80
2022-07-30T16:54:42.994Z,31.10
2022-07-30T16:59:49.740Z,31.50
2022-07-30T17:04:53.683Z,31.20
2022-07-30T17:10:00.583Z,32.00
2022-07-30T17:15:13.364Z,29.30
2022-07-30T17:20:16.661Z,25.90
2022-07-30T17:25:23.385Z,23.20
2022-07-30T17:30:29.150Z,22.10
2022-07-30T17:35:32.247Z,21.80
2022-07-30T17:40:38.886Z,21.50
2022-07-30T17:45:43.992Z,20.80
2022-07-30T17:50:47.539Z,21.00
2022-07-30T17:55:57.390Z,21.80
2022-07-30T18:01:04.170Z,21.40
2022-07-30T18:06:09.297Z,20.30
2022-07-30T18:11:14.841Z,20.00
2022-07-30T18:16:19.896Z,19.70
2022-07-30T18:21:23.661Z,19.50
2022-07-30T18:26:27.951Z,19.70
2022-07-30T18:31:32.699Z,19.50
2022-07-30T18:36:38.822Z,19.30
2022-07-30T18:41:41.960Z,19.50
2022-07-30T18:46:49.689Z,19.50
2022-07-30T18:51:54.432Z,19.50
2022-07-30T18:57:00.101Z,19.70
2022-07-30T19:02:07.111Z,19.70
2022-07-30T19:07:10.547Z,19.80
2022-07-30T19:12:14.259Z,19.90
2022-07-30T19:17:18.904Z,20.00
2022-07-30T19:22:29.783Z,20.30
2022-07-30T19:27:33.694Z,20.50
2022-07-30T19:32:41.362Z,20.70
2022-07-30T19:37:45.011Z,20.80
2022-07-30T19:42:48.856Z,20.90
2022-07-30T19:47:58.715Z,21.20
2022-07-30T19:53:03.151Z,21.30
2022-07-30T19:58:16.104Z,21.30
2022-07-30T20:08:49.870Z,21.50
2022-07-30T20:14:05.127Z,21.70
2022-07-30T20:19:15.747Z,21.90
2022-07-30T20:25:37.992Z,22.40
2022-07-30T20:30:43.189Z,22.10
2022-07-30T20:35:46.551Z,22.30
2022-07-30T20:40:55.475Z,22.20
2022-07-30T20:45:59.433Z,22.10
2022-07-30T20:51:02.857Z,22.10
2022-07-30T20:56:09.064Z,21.90
2022-07-30T21:01:18.061Z,21.80
2022-07-30T21:06:22.650Z,21.70
2022-07-30T21:11:31.298Z,21.60
2022-07-30T21:16:41.155Z,21.50
2022-07-30T21:21:48.079Z,21.80
2022-07-30T21:26:54.387Z,21.70
2022-07-30T21:32:02.343Z,21.90
2022-07-30T21:37:07.811Z,21.80
2022-07-30T21:42:13.411Z,21.50
2022-07-30T21:47:16.885Z,21.20
2022-07-30T21:52:20.913Z,21.00
2022-07-30T21:57:30.269Z,20.80
2022-07-30T22:02:34.176Z,20.90
2022-07-30T22:07:37.924Z,20.80
2022-07-30T22:12:45.606Z,20.60
2022-07-30T22:18:00.537Z,20.60
2022-07-30T22:23:04.668Z,20.50
2022-07-30T22:28:09.212Z,20.40
2022-07-30T22:33:14.227Z,20.20
2022-07-30T22:38:19.506Z,19.90
2022-07-30T22:43:27.094Z,20.20
2022-07-30T22:48:42.022Z,20.30
2022-07-30T22:54:11.125Z,20.10
2022-07-30T22:59:10.545Z,19.90
2022-07-30T23:04:14.499Z,20.00
2022-07-30T23:09:18.693Z,19.80
2022-07-30T23:12:15.733Z,21.40
2022-07-30T23:14:24.074Z,19.70
2022-07-30T23:19:29.294Z,19.80
2022-07-30T23:24:35.535Z,19.70
2022-07-30T23:29:40.917Z,19.70
2022-07-30T23:34:47.610Z,19.60
2022-07-30T23:39:50.994Z,19.50
2022-07-30T23:44:55.927Z,19.60
2022-07-30T23:49:59.705Z,19.60
2022-07-30T23:55:03.035Z,19.70
